sensor_id;sensor_type;location;lat;lon;timestamp;pressure;altitude;pressure_sealevel;temperature;humidity
61740;BME280;47645;45.288;12.038;2023-04-03T00:03:33;1012.6374171634075;;;11.55859375;91.92557441859958
61740;BME280;47645;45.288;12.038;2023-04-03T00:13:33;1012.6454692227675;;;11.4158203125;92.92096924178225
61740;BME280;47645;45.288;12.038;2023-04-03T00:23:33;1012.6080049699324;;;11.466796875;91.89218237357353
61740;BME280;47645;45.288;12.038;2023-04-03T00:33:34;1012.5425784503122;;;11.4005859375;90.59258907612193
61740;BME280;47645;45.288;12.038;2023-04-03T00:43:35;1012.5278611505565;;;11.375;89.83651498040206
61740;BME280;47645;45.288;12.038;2023-04-03T00:53:40;1012.5089416597276;;;11.3138671875;89.75606607821767
61740;BME280;47645;45.288;12.038;2023-04-03T01:03:36;1012.5771047498283;;;11.2578125;90.13728123963031
61740;BME280;47645;45.288;12.038;2023-04-03T01:13:37;1012.583124558993;;;11.03359375;89.69772499907603
61740;BME280;47645;45.288;12.038;2023-04-03T01:23:45;1012.5518953777582;;;10.9978515625;87.52031420342365
61740;BME280;47645;45.288;12.038;2023-04-03T01:33:38;1012.5484589508621;;;10.844921875;87.81932764500799
61740;BME280;47645;45.288;12.038;2023-04-03T01:43:38;1012.5929279572156;;;10.748046875;86.79919790036115
61740;BME280;47645;45.288;12.038;2023-04-03T01:53:40;1012.6027512662986;;;10.7583984375;86.9737664341874
61740;BME280;47645;45.288;12.038;2023-04-03T02:03:40;1012.5484418251716;;;10.7328125;87.22892996984166
61740;BME280;47645;45.288;12.038;2023-04-03T02:13:40;1012.4560531620697;;;10.5849609375;87.82179782646551
61740;BME280;47645;45.288;12.038;2023-04-03T02:23:41;1012.3991937935871;;;10.503515625;85.49951055219124
61740;BME280;47645;45.288;12.038;2023-04-03T02:33:42;1012.3873834340889;;;11.1099609375;80.15276355008523
61740;BME280;47645;45.288;12.038;2023-04-03T02:43:42;1012.4240294813144;;;10.610546875;83.31727996727945
61740;BME280;47645;45.288;12.038;2023-04-03T02:53:43;1012.4392263781971;;;10.2181640625;90.73322078687977
61740;BME280;47645;45.288;12.038;2023-04-03T03:03:44;1012.3509112564265;;;10.1517578125;94.53172862590833
61740;BME280;47645;45.288;12.038;2023-04-03T03:13:44;1012.5318614700998;;;10.5646484375;93.90368801869855
61740;BME280;47645;45.288;12.038;2023-04-03T03:23:45;1012.4630145763191;;;10.8041015625;91.55639156169698
61740;BME280;47645;45.288;12.038;2023-04-03T03:33:45;1012.5071889340969;;;11.0181640625;83.59146339956291
61740;BME280;47645;45.288;12.038;2023-04-03T03:43:46;1012.6766157546532;;;11.0998046875;80.64611232600423
61740;BME280;47645;45.288;12.038;2023-04-03T03:53:47;1012.630458601479;;;11.1201171875;75.31149505125053
61740;BME280;47645;45.288;12.038;2023-04-03T04:03:47;1012.7751596130531;;;11.0794921875;75.21902314620696
61740;BME280;47645;45.288;12.038;2023-04-03T04:13:48;1012.8083184286592;;;11.2322265625;76.38964926332673
61740;BME280;47645;45.288;12.038;2023-04-03T04:23:49;1012.8693519263308;;;11.1150390625;77.13562113627917
61740;BME280;47645;45.288;12.038;2023-04-03T04:33:50;1012.9547788352485;;;10.8755859375;79.87628870999147
61740;BME280;47645;45.288;12.038;2023-04-03T04:43:51;1013.0168398290219;;;10.74296875;77.36902626275344
61740;BME280;47645;45.288;12.038;2023-04-03T04:53:51;1013.0463795227702;;;10.8806640625;78.67119950530558
61740;BME280;47645;45.288;12.038;2023-04-03T05:03:51;1013.0943587408125;;;10.9111328125;77.52862851035947
61740;BME280;47645;45.288;12.038;2023-04-03T05:13:52;1013.1212874150342;;;11.0181640625;76.32688236018848
61740;BME280;47645;45.288;12.038;2023-04-03T05:23:52;1013.2940023196555;;;11.0130859375;75.62025069690694
61740;BME280;47645;45.288;12.038;2023-04-03T05:33:53;1013.2923653777787;;;11.058984375;73.26994523403222
61740;BME280;47645;45.288;12.038;2023-04-03T05:43:54;1013.2836881874738;;;11.2119140625;71.99192224933573
61740;BME280;47645;45.288;12.038;2023-04-03T05:54:00;1013.3722832719199;;;11.252734375;72.26244875511546
61740;BME280;47645;45.288;12.038;2023-04-03T06:03:56;1013.3290731210425;;;11.349609375;70.01738209511515
61740;BME280;47645;45.288;12.038;2023-04-03T06:13:56;1013.5675119022816;;;11.4208984375;68.29370592084362
61740;BME280;47645;45.288;12.038;2023-04-03T06:23:56;1013.5715501872824;;;11.5431640625;68.69340917165712
61740;BME280;47645;45.288;12.038;2023-04-03T06:33:57;1013.5752423744422;;;11.803125;68.50982355122716
61740;BME280;47645;45.288;12.038;2023-04-03T06:43:58;1013.7097236549862;;;11.9712890625;65.78359024763662
61740;BME280;47645;45.288;12.038;2023-04-03T06:53:59;1013.8122857360927;;;12.1140625;64.21037179285831
61740;BME280;47645;45.288;12.038;2023-04-03T07:03:59;1013.778257583594;;;12.1904296875;65.72031908530231
61740;BME280;47645;45.288;12.038;2023-04-03T07:14:00;1013.9100327615442;;;12.1599609375;65.2193817768128
61740;BME280;47645;45.288;12.038;2023-04-03T07:24:01;1014.0340246196371;;;12.20078125;63.82938021267412
61740;BME280;47645;45.288;12.038;2023-04-03T07:34:01;1014.0345066369098;;;12.3994140625;63.39273837603299
61740;BME280;47645;45.288;12.038;2023-04-03T07:44:03;1014.1882019005988;;;12.521875;62.144618323955385
61740;BME280;47645;45.288;12.038;2023-04-03T07:54:02;1014.2367867844466;;;12.35859375;61.23366187760645
61740;BME280;47645;45.288;12.038;2023-04-03T08:04:03;1014.3224062671671;;;12.547265625;61.80446345805845
61740;BME280;47645;45.288;12.038;2023-04-03T08:14:04;1014.302896508079;;;12.674609375;63.06104806845569
61740;BME280;47645;45.288;12.038;2023-04-03T08:24:05;1014.3544213450494;;;12.8224609375;57.2965836219984
61740;BME280;47645;45.288;12.038;2023-04-03T08:34:05;1014.3332918990841;;;13.3322265625;59.03814615736531
61740;BME280;47645;45.288;12.038;2023-04-03T08:44:15;1014.3565771009645;;;12.9345703125;58.08152062251484
61740;BME280;47645;45.288;12.038;2023-04-03T08:54:23;1014.4392587242619;;;12.84296875;54.0782707221389
61740;BME280;47645;45.288;12.038;2023-04-03T09:04:11;1014.4683886336119;;;13.5361328125;50.8983739721888
61740;BME280;47645;45.288;12.038;2023-04-03T09:14:13;1014.3729821177923;;;14.570703125;52.28785661513702
61740;BME280;47645;45.288;12.038;2023-04-03T09:24:11;1014.4209696895763;;;14.36171875;49.040905199193155
61740;BME280;47645;45.288;12.038;2023-04-03T09:34:17;1014.362612288429;;;14.69296875;55.66681726000801
61740;BME280;47645;45.288;12.038;2023-04-03T09:44:21;1014.3777644499194;;;14.0712890625;47.21026373040149
61740;BME280;47645;45.288;12.038;2023-04-03T09:54:30;1014.3742499399876;;;14.57578125;47.010829180638694
61740;BME280;47645;45.288;12.038;2023-04-03T10:04:13;1014.1956457361835;;;16.359765625;51.22540796501009
61740;BME280;47645;45.288;12.038;2023-04-03T10:14:17;1014.2507698569756;;;15.4421875;51.43211017241855
61740;BME280;47645;45.288;12.038;2023-04-03T10:24:20;1014.139067834399;;;16.6197265625;48.63844624135165
61740;BME280;47645;45.288;12.038;2023-04-03T10:34:21;1014.0734245427011;;;17.4861328125;49.56705256152553
61740;BME280;47645;45.288;12.038;2023-04-03T10:44:23;1014.0819605695232;;;17.72578125;41.53847093176005
61740;BME280;47645;45.288;12.038;2023-04-03T10:54:20;1013.892090501141;;;18.7248046875;43.257849989370854
61740;BME280;47645;45.288;12.038;2023-04-03T11:04:19;1013.8469352743984;;;17.827734375;48.03179105335693
61740;BME280;47645;45.288;12.038;2023-04-03T11:14:25;1013.7193347549191;;;16.69609375;46.265156076314106
61740;BME280;47645;45.288;12.038;2023-04-03T11:24:24;1013.5364738581849;;;19.295703125;38.31504961823743
61740;BME280;47645;45.288;12.038;2023-04-03T11:34:31;1013.3785041181989;;;19.1681640625;44.81707259581684
61740;BME280;47645;45.288;12.038;2023-04-03T11:44:38;1013.2503709793081;;;19.295703125;41.71718499597441
61740;BME280;47645;45.288;12.038;2023-04-03T11:54:55;1013.15725106361;;;18.148828125;40.512446709114414
61740;BME280;47645;45.288;12.038;2023-04-03T12:04:26;1013.1410587677498;;;19.428125;38.39484058487637
61740;BME280;47645;45.288;12.038;2023-04-03T12:14:27;1013.0117074150777;;;19.08671875;43.6725339599722
61740;BME280;47645;45.288;12.038;2023-04-03T12:24:28;1012.9641788495016;;;20.141796875;37.27290640971512
61740;BME280;47645;45.288;12.038;2023-04-03T12:34:42;1012.8269851146565;;;21.1560546875;42.702028045925395
61740;BME280;47645;45.288;12.038;2023-04-03T12:44:36;1012.7287529235488;;;21.4669921875;37.96162935084222
61740;BME280;47645;45.288;12.038;2023-04-03T12:54:32;1012.6714881964887;;;21.9462890625;37.261643817228276
61740;BME280;47645;45.288;12.038;2023-04-03T13:04:31;1012.5016690250175;;;20.68203125;37.24086007112585
61740;BME280;47645;45.288;12.038;2023-04-03T13:14:33;1012.4851661650417;;;20.0091796875;33.804062123009764
61740;BME280;47645;45.288;12.038;2023-04-03T13:24:37;1012.3775291442637;;;21.1408203125;40.55767928137538
61740;BME280;47645;45.288;12.038;2023-04-03T13:34:37;1012.251385180184;;;21.5283203125;37.06265904689409
61740;BME280;47645;45.288;12.038;2023-04-03T13:44:37;1012.2224574654787;;;22.20625;40.32808252900215
61740;BME280;47645;45.288;12.038;2023-04-03T13:54:38;1012.2557522478503;;;21.6759765625;40.63306359674021
61740;BME280;47645;45.288;12.038;2023-04-03T14:04:47;1012.1045274653585;;;21.721875;43.09672422518534
61740;BME280;47645;45.288;12.038;2023-04-03T14:14:39;1012.1504186708537;;;21.8849609375;40.0975713042606
61740;BME280;47645;45.288;12.038;2023-04-03T14:24:41;1012.0801946175976;;;21.8697265625;38.53605633926733
61740;BME280;47645;45.288;12.038;2023-04-03T14:34:42;1011.9690053148043;;;21.8494140625;42.844186225959355
61740;BME280;47645;45.288;12.038;2023-04-03T14:44:44;1011.9456301623181;;;21.3244140625;39.217182321453336
61740;BME280;47645;45.288;12.038;2023-04-03T14:54:45;1011.9279092118896;;;21.3599609375;43.019525942454955
61740;BME280;47645;45.288;12.038;2023-04-03T15:04:45;1011.8648355297591;;;21.16640625;40.057343347847585
61740;BME280;47645;45.288;12.038;2023-04-03T15:14:46;1011.9330181880297;;;20.957421875;41.89080244715731
61740;BME280;47645;45.288;12.038;2023-04-03T15:24:47;1011.8890454065695;;;20.6921875;44.501432838623224
61740;BME280;47645;45.288;12.038;2023-04-03T15:34:48;1011.9740847926804;;;19.937890625;38.76619665984979
61740;BME280;47645;45.288;12.038;2023-04-03T15:44:49;1011.9471223529591;;;20.0908203125;43.463604133316615
61740;BME280;47645;45.288;12.038;2023-04-03T15:54:50;1012.0641634158106;;;19.3873046875;42.14695512077548
61740;BME280;47645;45.288;12.038;2023-04-03T16:04:51;1012.1518633236952;;;19.2650390625;40.348669178333594
61740;BME280;47645;45.288;12.038;2023-04-03T16:14:58;1012.2180776301919;;;18.7146484375;41.71448603544
61740;BME280;47645;45.288;12.038;2023-04-03T16:24:56;1012.236654953397;;;18.046875;46.218016494765905
61740;BME280;47645;45.288;12.038;2023-04-03T16:34:55;1012.2157168200605;;;16.9255859375;40.89670180025409
61740;BME280;47645;45.288;12.038;2023-04-03T16:44:56;1012.2979614101579;;;17.0326171875;51.374229198309074
61740;BME280;47645;45.288;12.038;2023-04-03T16:54:59;1012.3091377775613;;;16.2935546875;50.26523524906493
61740;BME280;47645;45.288;12.038;2023-04-03T17:04:57;1012.4580238227422;;;15.9927734375;53.24866598648765
61740;BME280;47645;45.288;12.038;2023-04-03T17:14:58;1012.5750311035289;;;15.62578125;55.482259340761
61740;BME280;47645;45.288;12.038;2023-04-03T17:24:59;1012.6724964902531;;;15.1875;54.37547853416786
61740;BME280;47645;45.288;12.038;2023-04-03T17:35:00;1012.7446561132712;;;14.76953125;53.54215828798711
61740;BME280;47645;45.288;12.038;2023-04-03T17:45:01;1012.8344469267239;;;14.7083984375;57.92315395203435
61740;BME280;47645;45.288;12.038;2023-04-03T17:55:03;1013.0031508053623;;;14.1578125;53.06522575718955
61740;BME280;47645;45.288;12.038;2023-04-03T18:05:03;1013.0296431299416;;;13.9744140625;57.44756440608021
61740;BME280;47645;45.288;12.038;2023-04-03T18:10:06;1013.1708869445902;;;13.8521484375;56.61490413543678
61740;BME280;47645;45.288;12.038;2023-04-03T18:20:05;1013.2390055713211;;;13.724609375;59.680592073852395
61740;BME280;47645;45.288;12.038;2023-04-03T18:30:08;1013.4466378112929;;;13.4392578125;54.75259320411322
61740;BME280;47645;45.288;12.038;2023-04-03T18:40:09;1013.6174391466161;;;13.3423828125;58.72981135667976
61740;BME280;47645;45.288;12.038;2023-04-03T18:50:07;1013.7285417478084;;;13.1232421875;62.076702315986545
61740;BME280;47645;45.288;12.038;2023-04-03T19:00:08;1013.8933389355728;;;13.072265625;60.37363715114196
61740;BME280;47645;45.288;12.038;2023-04-03T19:10:09;1014.0021441624507;;;12.761328125;60.90749826408857
61740;BME280;47645;45.288;12.038;2023-04-03T19:20:11;1014.154899719391;;;12.5064453125;59.64481028109504
61740;BME280;47645;45.288;12.038;2023-04-03T19:30:11;1014.2187250902092;;;12.4962890625;60.01385174383338
61740;BME280;47645;45.288;12.038;2023-04-03T19:40:11;1014.2897044989143;;;12.353515625;60.36062221560036
61740;BME280;47645;45.288;12.038;2023-04-03T19:50:11;1014.4565740316845;;;12.1498046875;55.07484117196637
61740;BME280;47645;45.288;12.038;2023-04-03T20:00:14;1014.4887996329285;;;12.1904296875;58.395891995059856
61740;BME280;47645;45.288;12.038;2023-04-03T20:10:13;1014.6473537931629;;;11.98671875;59.546743330886855
61740;BME280;47645;45.288;12.038;2023-04-03T20:20:14;1014.7780724497717;;;11.808203125;56.90052129990585
61740;BME280;47645;45.288;12.038;2023-04-03T20:30:17;1014.7915308169098;;;11.915234375;63.21961473766416
61740;BME280;47645;45.288;12.038;2023-04-03T20:40:15;1014.73665478569;;;11.5279296875;60.51402834615032
61740;BME280;47645;45.288;12.038;2023-04-03T20:50:16;1014.7528455266994;;;11.4515625;56.77291844075065
61740;BME280;47645;45.288;12.038;2023-04-03T21:00:19;1014.8614524398549;;;11.3138671875;61.27471697073105
61740;BME280;47645;45.288;12.038;2023-04-03T21:20:18;1014.8755024004854;;;11.0947265625;56.03031288425121
61740;BME280;47645;45.288;12.038;2023-04-03T21:30:19;1014.8079686009696;;;11.038671875;59.58363313434248
61740;BME280;47645;45.288;12.038;2023-04-03T21:40:20;1014.9533632418452;;;10.7939453125;54.373895349144455
61740;BME280;47645;45.288;12.038;2023-04-03T21:50:21;1014.8241206050167;;;10.6513671875;53.46819291805718
61740;BME280;47645;45.288;12.038;2023-04-03T22:00:21;1014.8584911627925;;;10.6767578125;59.78917034094155
61740;BME280;47645;45.288;12.038;2023-04-03T22:10:21;1014.9132112063837;;;10.2435546875;55.48159785814504
61740;BME280;47645;45.288;12.038;2023-04-03T22:20:22;1014.8433542649614;;;10.2435546875;59.857320510761845
61740;BME280;47645;45.288;12.038;2023-04-03T22:30:22;1014.8205218355483;;;9.9427734375;49.721701884750686
61740;BME280;47645;45.288;12.038;2023-04-03T22:40:23;1014.8792810004445;;;9.65234375;50.613563453855306
61740;BME280;47645;45.288;12.038;2023-04-03T22:50:24;1014.8940871092723;;;9.540234375;59.66021328922933
61740;BME280;47645;45.288;12.038;2023-04-03T23:00:27;1014.8115785522356;;;9.122265625;50.38637675396768
61740;BME280;47645;45.288;12.038;2023-04-03T23:10:25;1014.9429651917291;;;9.24453125;56.2324489179909
61740;BME280;47645;45.288;12.038;2023-04-03T23:20:26;1014.9332724607718;;;9.24453125;56.00405393374894
61740;BME280;47645;45.288;12.038;2023-04-03T23:30:26;1014.9039150732401;;;9.423046875;52.548668196655235
61740;BME280;47645;45.288;12.038;2023-04-03T23:40:27;1014.8571272961501;;;9.0611328125;55.623694855212506
61740;BME280;47645;45.288;12.038;2023-04-03T23:50:28;1014.8568410376861;;;8.898046875;57.387105102126306
